sensor_id;sensor_type;location;lat;lon;timestamp;P1;durP1;ratioP1;P2;durP2;ratioP2
17494;SDS011;8864;51.970;4.614;2023-05-07T00:00:54;6.15;;;4.30;;
17494;SDS011;8864;51.970;4.614;2023-05-07T00:03:21;7.50;;;4.50;;
17494;SDS011;8864;51.970;4.614;2023-05-07T00:05:50;7.30;;;4.20;;
17494;SDS011;8864;51.970;4.614;2023-05-07T00:08:17;7.10;;;4.43;;
17494;SDS011;8864;51.970;4.614;2023-05-07T00:10:45;7.38;;;4.07;;
17494;SDS011;8864;51.970;4.614;2023-05-07T00:13:12;5.22;;;3.70;;
17494;SDS011;8864;51.970;4.614;2023-05-07T00:15:39;6.20;;;3.88;;
17494;SDS011;8864;51.970;4.614;2023-05-07T00:18:06;8.55;;;4.05;;
17494;SDS011;8864;51.970;4.614;2023-05-07T00:20:33;6.60;;;4.25;;
17494;SDS011;8864;51.970;4.614;2023-05-07T00:23:01;5.93;;;3.97;;
17494;SDS011;8864;51.970;4.614;2023-05-07T00:25:28;7.32;;;4.20;;
17494;SDS011;8864;51.970;4.614;2023-05-07T00:27:55;6.47;;;4.15;;
17494;SDS011;8864;51.970;4.614;2023-05-07T00:30:22;5.95;;;4.00;;
17494;SDS011;8864;51.970;4.614;2023-05-07T00:32:50;6.57;;;4.00;;
17494;SDS011;8864;51.970;4.614;2023-05-07T00:35:17;6.40;;;4.10;;
17494;SDS011;8864;51.970;4.614;2023-05-07T00:37:44;5.70;;;4.00;;
17494;SDS011;8864;51.970;4.614;2023-05-07T00:40:13;5.93;;;3.50;;
17494;SDS011;8864;51.970;4.614;2023-05-07T00:42:40;6.35;;;3.90;;
17494;SDS011;8864;51.970;4.614;2023-05-07T00:45:07;6.43;;;4.00;;
17494;SDS011;8864;51.970;4.614;2023-05-07T00:47:35;8.02;;;4.20;;
17494;SDS011;8864;51.970;4.614;2023-05-07T00:50:03;9.55;;;4.03;;
17494;SDS011;8864;51.970;4.614;2023-05-07T00:52:31;6.30;;;3.85;;
17494;SDS011;8864;51.970;4.614;2023-05-07T00:54:58;6.97;;;4.30;;
17494;SDS011;8864;51.970;4.614;2023-05-07T00:57:30;6.95;;;4.18;;
17494;SDS011;8864;51.970;4.614;2023-05-07T01:00:03;5.65;;;4.15;;
17494;SDS011;8864;51.970;4.614;2023-05-07T01:02:30;6.90;;;3.92;;
17494;SDS011;8864;51.970;4.614;2023-05-07T01:04:57;5.90;;;4.32;;
17494;SDS011;8864;51.970;4.614;2023-05-07T01:07:24;6.53;;;4.32;;
17494;SDS011;8864;51.970;4.614;2023-05-07T01:09:51;5.68;;;3.95;;
17494;SDS011;8864;51.970;4.614;2023-05-07T01:12:19;6.20;;;3.90;;
17494;SDS011;8864;51.970;4.614;2023-05-07T01:14:47;6.35;;;3.85;;
17494;SDS011;8864;51.970;4.614;2023-05-07T01:17:15;6.18;;;3.88;;
17494;SDS011;8864;51.970;4.614;2023-05-07T01:19:43;8.43;;;4.18;;
17494;SDS011;8864;51.970;4.614;2023-05-07T01:22:10;6.32;;;4.10;;
17494;SDS011;8864;51.970;4.614;2023-05-07T01:24:38;4.78;;;3.50;;
17494;SDS011;8864;51.970;4.614;2023-05-07T01:27:05;6.13;;;3.80;;
17494;SDS011;8864;51.970;4.614;2023-05-07T01:29:32;7.20;;;3.80;;
17494;SDS011;8864;51.970;4.614;2023-05-07T01:32:00;8.77;;;3.50;;
17494;SDS011;8864;51.970;4.614;2023-05-07T01:34:28;6.07;;;3.80;;
17494;SDS011;8864;51.970;4.614;2023-05-07T01:36:58;6.95;;;3.50;;
17494;SDS011;8864;51.970;4.614;2023-05-07T01:39:28;5.97;;;3.70;;
17494;SDS011;8864;51.970;4.614;2023-05-07T01:41:57;5.28;;;3.40;;
17494;SDS011;8864;51.970;4.614;2023-05-07T01:44:25;5.32;;;3.50;;
17494;SDS011;8864;51.970;4.614;2023-05-07T01:46:54;7.07;;;3.72;;
17494;SDS011;8864;51.970;4.614;2023-05-07T01:49:21;6.93;;;3.78;;
17494;SDS011;8864;51.970;4.614;2023-05-07T01:51:48;6.88;;;3.80;;
17494;SDS011;8864;51.970;4.614;2023-05-07T01:54:16;4.75;;;3.30;;
17494;SDS011;8864;51.970;4.614;2023-05-07T01:56:42;5.72;;;3.65;;
17494;SDS011;8864;51.970;4.614;2023-05-07T01:59:11;5.63;;;3.42;;
17494;SDS011;8864;51.970;4.614;2023-05-07T02:01:38;6.53;;;3.08;;
17494;SDS011;8864;51.970;4.614;2023-05-07T02:04:05;4.88;;;3.05;;
17494;SDS011;8864;51.970;4.614;2023-05-07T02:06:32;7.47;;;3.47;;
17494;SDS011;8864;51.970;4.614;2023-05-07T02:08:59;5.53;;;3.47;;
17494;SDS011;8864;51.970;4.614;2023-05-07T02:11:26;6.40;;;3.60;;
17494;SDS011;8864;51.970;4.614;2023-05-07T02:13:53;4.07;;;2.88;;
17494;SDS011;8864;51.970;4.614;2023-05-07T02:16:21;4.00;;;3.17;;
17494;SDS011;8864;51.970;4.614;2023-05-07T02:18:49;6.07;;;3.63;;
17494;SDS011;8864;51.970;4.614;2023-05-07T02:21:15;6.70;;;3.78;;
17494;SDS011;8864;51.970;4.614;2023-05-07T02:23:42;4.78;;;3.50;;
17494;SDS011;8864;51.970;4.614;2023-05-07T02:26:10;5.40;;;3.20;;
17494;SDS011;8864;51.970;4.614;2023-05-07T02:28:37;5.82;;;3.33;;
17494;SDS011;8864;51.970;4.614;2023-05-07T02:31:04;5.93;;;3.38;;
17494;SDS011;8864;51.970;4.614;2023-05-07T02:33:32;4.75;;;3.13;;
17494;SDS011;8864;51.970;4.614;2023-05-07T02:36:04;6.45;;;3.17;;
17494;SDS011;8864;51.970;4.614;2023-05-07T02:38:32;4.80;;;3.53;;
17494;SDS011;8864;51.970;4.614;2023-05-07T02:40:59;5.88;;;3.05;;
17494;SDS011;8864;51.970;4.614;2023-05-07T02:43:26;5.53;;;3.40;;
17494;SDS011;8864;51.970;4.614;2023-05-07T02:46:00;4.32;;;3.03;;
17494;SDS011;8864;51.970;4.614;2023-05-07T02:48:28;5.88;;;3.15;;
17494;SDS011;8864;51.970;4.614;2023-05-07T02:50:56;4.80;;;3.05;;
17494;SDS011;8864;51.970;4.614;2023-05-07T02:53:23;3.85;;;2.85;;
17494;SDS011;8864;51.970;4.614;2023-05-07T02:55:51;4.20;;;3.20;;
17494;SDS011;8864;51.970;4.614;2023-05-07T02:58:18;4.97;;;3.20;;
17494;SDS011;8864;51.970;4.614;2023-05-07T03:00:45;4.15;;;3.22;;
17494;SDS011;8864;51.970;4.614;2023-05-07T03:03:12;4.22;;;2.80;;
17494;SDS011;8864;51.970;4.614;2023-05-07T03:05:39;4.95;;;3.25;;
17494;SDS011;8864;51.970;4.614;2023-05-07T03:08:08;5.00;;;3.08;;
17494;SDS011;8864;51.970;4.614;2023-05-07T03:10:35;6.03;;;3.05;;
17494;SDS011;8864;51.970;4.614;2023-05-07T03:13:03;4.38;;;2.95;;
17494;SDS011;8864;51.970;4.614;2023-05-07T03:15:30;3.92;;;2.85;;
17494;SDS011;8864;51.970;4.614;2023-05-07T03:17:57;4.47;;;2.90;;
17494;SDS011;8864;51.970;4.614;2023-05-07T03:20:24;4.13;;;2.80;;
17494;SDS011;8864;51.970;4.614;2023-05-07T03:22:50;7.55;;;3.65;;
17494;SDS011;8864;51.970;4.614;2023-05-07T03:25:19;6.25;;;3.10;;
17494;SDS011;8864;51.970;4.614;2023-05-07T03:27:46;5.10;;;2.90;;
17494;SDS011;8864;51.970;4.614;2023-05-07T03:30:12;4.45;;;2.63;;
17494;SDS011;8864;51.970;4.614;2023-05-07T03:32:39;4.47;;;3.10;;
17494;SDS011;8864;51.970;4.614;2023-05-07T03:35:06;5.47;;;2.67;;
17494;SDS011;8864;51.970;4.614;2023-05-07T03:37:33;6.07;;;2.80;;
17494;SDS011;8864;51.970;4.614;2023-05-07T03:40:00;4.25;;;2.60;;
17494;SDS011;8864;51.970;4.614;2023-05-07T03:42:29;5.18;;;3.05;;
17494;SDS011;8864;51.970;4.614;2023-05-07T03:44:56;3.90;;;2.85;;
17494;SDS011;8864;51.970;4.614;2023-05-07T03:47:23;3.75;;;2.55;;
17494;SDS011;8864;51.970;4.614;2023-05-07T03:49:50;3.90;;;2.40;;
17494;SDS011;8864;51.970;4.614;2023-05-07T03:52:18;5.00;;;2.60;;
17494;SDS011;8864;51.970;4.614;2023-05-07T03:54:50;3.78;;;2.13;;
17494;SDS011;8864;51.970;4.614;2023-05-07T03:57:18;6.07;;;2.85;;
17494;SDS011;8864;51.970;4.614;2023-05-07T03:59:47;3.80;;;2.47;;
17494;SDS011;8864;51.970;4.614;2023-05-07T04:02:13;3.22;;;2.42;;
17494;SDS011;8864;51.970;4.614;2023-05-07T04:04:40;3.17;;;2.30;;
17494;SDS011;8864;51.970;4.614;2023-05-07T04:07:07;3.42;;;2.15;;
17494;SDS011;8864;51.970;4.614;2023-05-07T04:09:35;4.38;;;2.63;;
17494;SDS011;8864;51.970;4.614;2023-05-07T04:12:02;3.75;;;2.60;;
17494;SDS011;8864;51.970;4.614;2023-05-07T04:14:29;7.03;;;2.58;;
17494;SDS011;8864;51.970;4.614;2023-05-07T04:16:58;3.20;;;2.13;;
17494;SDS011;8864;51.970;4.614;2023-05-07T04:19:25;4.10;;;2.40;;
17494;SDS011;8864;51.970;4.614;2023-05-07T04:21:52;3.05;;;2.33;;
17494;SDS011;8864;51.970;4.614;2023-05-07T04:24:19;5.18;;;2.38;;
17494;SDS011;8864;51.970;4.614;2023-05-07T04:26:46;3.65;;;2.22;;
17494;SDS011;8864;51.970;4.614;2023-05-07T04:29:13;4.32;;;2.53;;
17494;SDS011;8864;51.970;4.614;2023-05-07T04:31:40;3.53;;;2.35;;
17494;SDS011;8864;51.970;4.614;2023-05-07T04:34:10;3.60;;;2.28;;
17494;SDS011;8864;51.970;4.614;2023-05-07T04:36:38;4.22;;;2.20;;
17494;SDS011;8864;51.970;4.614;2023-05-07T04:39:05;4.82;;;2.50;;
17494;SDS011;8864;51.970;4.614;2023-05-07T04:41:32;5.20;;;2.85;;
17494;SDS011;8864;51.970;4.614;2023-05-07T04:43:59;3.78;;;2.40;;
17494;SDS011;8864;51.970;4.614;2023-05-07T04:46:26;3.53;;;1.95;;
17494;SDS011;8864;51.970;4.614;2023-05-07T04:48:52;4.13;;;2.15;;
17494;SDS011;8864;51.970;4.614;2023-05-07T04:51:21;3.33;;;2.30;;
17494;SDS011;8864;51.970;4.614;2023-05-07T04:53:48;3.10;;;2.17;;
17494;SDS011;8864;51.970;4.614;2023-05-07T04:56:15;2.92;;;2.15;;
17494;SDS011;8864;51.970;4.614;2023-05-07T04:58:42;2.60;;;2.10;;
17494;SDS011;8864;51.970;4.614;2023-05-07T05:01:09;4.70;;;2.33;;
17494;SDS011;8864;51.970;4.614;2023-05-07T05:03:36;4.63;;;2.22;;
17494;SDS011;8864;51.970;4.614;2023-05-07T05:06:04;4.25;;;2.20;;
17494;SDS011;8864;51.970;4.614;2023-05-07T05:08:33;2.63;;;2.08;;
17494;SDS011;8864;51.970;4.614;2023-05-07T05:11:00;3.08;;;2.05;;
17494;SDS011;8864;51.970;4.614;2023-05-07T05:13:27;3.70;;;1.80;;
17494;SDS011;8864;51.970;4.614;2023-05-07T05:15:55;3.78;;;2.05;;
17494;SDS011;8864;51.970;4.614;2023-05-07T05:18:22;3.80;;;2.22;;
17494;SDS011;8864;51.970;4.614;2023-05-07T05:20:49;4.13;;;2.60;;
17494;SDS011;8864;51.970;4.614;2023-05-07T05:23:17;4.15;;;2.50;;
17494;SDS011;8864;51.970;4.614;2023-05-07T05:25:45;6.55;;;2.25;;
17494;SDS011;8864;51.970;4.614;2023-05-07T05:28:12;3.72;;;2.20;;
17494;SDS011;8864;51.970;4.614;2023-05-07T05:30:39;3.78;;;2.33;;
17494;SDS011;8864;51.970;4.614;2023-05-07T05:33:06;2.50;;;2.03;;
17494;SDS011;8864;51.970;4.614;2023-05-07T05:35:33;3.80;;;2.40;;
17494;SDS011;8864;51.970;4.614;2023-05-07T05:38:00;3.78;;;2.10;;
17494;SDS011;8864;51.970;4.614;2023-05-07T05:40:27;3.15;;;2.20;;
17494;SDS011;8864;51.970;4.614;2023-05-07T05:42:56;4.82;;;2.33;;
17494;SDS011;8864;51.970;4.614;2023-05-07T05:45:22;5.90;;;2.45;;
17494;SDS011;8864;51.970;4.614;2023-05-07T05:47:50;3.75;;;2.35;;
17494;SDS011;8864;51.970;4.614;2023-05-07T05:50:17;4.05;;;2.20;;
17494;SDS011;8864;51.970;4.614;2023-05-07T05:52:44;4.85;;;2.35;;
17494;SDS011;8864;51.970;4.614;2023-05-07T05:55:11;4.28;;;2.38;;
17494;SDS011;8864;51.970;4.614;2023-05-07T05:57:38;5.30;;;2.60;;
17494;SDS011;8864;51.970;4.614;2023-05-07T06:00:07;6.40;;;2.85;;
17494;SDS011;8864;51.970;4.614;2023-05-07T06:02:35;5.13;;;2.97;;
17494;SDS011;8864;51.970;4.614;2023-05-07T06:05:02;3.97;;;2.80;;
17494;SDS011;8864;51.970;4.614;2023-05-07T06:07:29;4.63;;;2.80;;
17494;SDS011;8864;51.970;4.614;2023-05-07T06:09:56;4.80;;;2.35;;
17494;SDS011;8864;51.970;4.614;2023-05-07T06:12:23;5.10;;;2.58;;
17494;SDS011;8864;51.970;4.614;2023-05-07T06:14:50;3.63;;;2.40;;
17494;SDS011;8864;51.970;4.614;2023-05-07T06:17:18;5.07;;;2.30;;
17494;SDS011;8864;51.970;4.614;2023-05-07T06:19:45;5.90;;;2.40;;
17494;SDS011;8864;51.970;4.614;2023-05-07T06:22:12;4.28;;;2.30;;
17494;SDS011;8864;51.970;4.614;2023-05-07T06:24:39;4.22;;;2.50;;
17494;SDS011;8864;51.970;4.614;2023-05-07T06:27:06;4.07;;;2.40;;
17494;SDS011;8864;51.970;4.614;2023-05-07T06:29:33;3.75;;;2.38;;
17494;SDS011;8864;51.970;4.614;2023-05-07T06:32:06;5.90;;;2.83;;
17494;SDS011;8864;51.970;4.614;2023-05-07T06:34:35;3.53;;;2.13;;
17494;SDS011;8864;51.970;4.614;2023-05-07T06:37:02;5.05;;;2.50;;
17494;SDS011;8864;51.970;4.614;2023-05-07T06:39:29;6.43;;;3.10;;
17494;SDS011;8864;51.970;4.614;2023-05-07T06:41:56;4.97;;;3.00;;
17494;SDS011;8864;51.970;4.614;2023-05-07T06:44:23;3.42;;;2.35;;
17494;SDS011;8864;51.970;4.614;2023-05-07T06:46:50;5.05;;;2.50;;
17494;SDS011;8864;51.970;4.614;2023-05-07T06:49:17;5.38;;;3.10;;
17494;SDS011;8864;51.970;4.614;2023-05-07T06:51:45;5.20;;;2.85;;
17494;SDS011;8864;51.970;4.614;2023-05-07T06:54:12;4.55;;;2.55;;
17494;SDS011;8864;51.970;4.614;2023-05-07T06:56:39;6.40;;;3.35;;
17494;SDS011;8864;51.970;4.614;2023-05-07T06:59:06;4.32;;;2.75;;
17494;SDS011;8864;51.970;4.614;2023-05-07T07:01:33;4.53;;;2.70;;
17494;SDS011;8864;51.970;4.614;2023-05-07T07:04:00;5.88;;;2.97;;
17494;SDS011;8864;51.970;4.614;2023-05-07T07:06:27;6.20;;;2.90;;
17494;SDS011;8864;51.970;4.614;2023-05-07T07:08:58;3.50;;;2.50;;
17494;SDS011;8864;51.970;4.614;2023-05-07T07:11:25;3.88;;;2.72;;
17494;SDS011;8864;51.970;4.614;2023-05-07T07:13:52;6.85;;;2.70;;
17494;SDS011;8864;51.970;4.614;2023-05-07T07:16:19;6.28;;;2.30;;
17494;SDS011;8864;51.970;4.614;2023-05-07T07:18:46;4.95;;;2.50;;
17494;SDS011;8864;51.970;4.614;2023-05-07T07:21:13;7.15;;;2.65;;
17494;SDS011;8864;51.970;4.614;2023-05-07T07:23:40;5.47;;;2.60;;
17494;SDS011;8864;51.970;4.614;2023-05-07T07:26:08;5.75;;;2.55;;
17494;SDS011;8864;51.970;4.614;2023-05-07T07:28:41;4.53;;;2.60;;
17494;SDS011;8864;51.970;4.614;2023-05-07T07:31:08;4.93;;;2.60;;
17494;SDS011;8864;51.970;4.614;2023-05-07T07:33:35;8.13;;;2.88;;
17494;SDS011;8864;51.970;4.614;2023-05-07T07:36:02;11.82;;;3.53;;
17494;SDS011;8864;51.970;4.614;2023-05-07T07:38:31;13.38;;;4.63;;
17494;SDS011;8864;51.970;4.614;2023-05-07T07:40:58;14.85;;;4.15;;
17494;SDS011;8864;51.970;4.614;2023-05-07T07:43:26;12.30;;;4.85;;
17494;SDS011;8864;51.970;4.614;2023-05-07T07:45:53;16.92;;;5.85;;
17494;SDS011;8864;51.970;4.614;2023-05-07T07:48:20;8.50;;;5.18;;
17494;SDS011;8864;51.970;4.614;2023-05-07T07:50:48;9.88;;;5.90;;
17494;SDS011;8864;51.970;4.614;2023-05-07T07:53:16;7.85;;;4.82;;
17494;SDS011;8864;51.970;4.614;2023-05-07T07:55:43;10.07;;;4.68;;
17494;SDS011;8864;51.970;4.614;2023-05-07T07:58:10;8.60;;;4.97;;
17494;SDS011;8864;51.970;4.614;2023-05-07T08:00:38;10.07;;;5.35;;
17494;SDS011;8864;51.970;4.614;2023-05-07T08:03:05;11.85;;;5.10;;
17494;SDS011;8864;51.970;4.614;2023-05-07T08:05:35;11.73;;;5.03;;
17494;SDS011;8864;51.970;4.614;2023-05-07T08:08:03;10.07;;;5.20;;
17494;SDS011;8864;51.970;4.614;2023-05-07T08:10:31;7.25;;;4.30;;
17494;SDS011;8864;51.970;4.614;2023-05-07T08:12:59;7.25;;;4.43;;
17494;SDS011;8864;51.970;4.614;2023-05-07T08:15:28;9.20;;;4.88;;
17494;SDS011;8864;51.970;4.614;2023-05-07T08:17:57;9.55;;;4.40;;
17494;SDS011;8864;51.970;4.614;2023-05-07T08:20:25;6.60;;;4.30;;
17494;SDS011;8864;51.970;4.614;2023-05-07T08:22:52;10.45;;;4.38;;
17494;SDS011;8864;51.970;4.614;2023-05-07T08:25:19;7.15;;;4.13;;
17494;SDS011;8864;51.970;4.614;2023-05-07T08:27:45;6.70;;;4.22;;
17494;SDS011;8864;51.970;4.614;2023-05-07T08:30:13;6.70;;;4.43;;
17494;SDS011;8864;51.970;4.614;2023-05-07T08:32:40;19.65;;;4.05;;
17494;SDS011;8864;51.970;4.614;2023-05-07T08:35:09;7.45;;;3.67;;
17494;SDS011;8864;51.970;4.614;2023-05-07T08:37:36;7.22;;;3.70;;
17494;SDS011;8864;51.970;4.614;2023-05-07T08:40:03;6.32;;;3.40;;
17494;SDS011;8864;51.970;4.614;2023-05-07T08:42:31;5.45;;;3.08;;
17494;SDS011;8864;51.970;4.614;2023-05-07T08:45:01;6.22;;;2.97;;
17494;SDS011;8864;51.970;4.614;2023-05-07T08:47:34;10.05;;;3.10;;
17494;SDS011;8864;51.970;4.614;2023-05-07T08:50:10;5.82;;;3.10;;
17494;SDS011;8864;51.970;4.614;2023-05-07T08:52:37;6.68;;;2.90;;
17494;SDS011;8864;51.970;4.614;2023-05-07T08:55:06;9.52;;;3.40;;
17494;SDS011;8864;51.970;4.614;2023-05-07T08:57:34;6.13;;;2.80;;
17494;SDS011;8864;51.970;4.614;2023-05-07T09:00:01;6.05;;;2.63;;
17494;SDS011;8864;51.970;4.614;2023-05-07T09:02:29;4.75;;;3.05;;
17494;SDS011;8864;51.970;4.614;2023-05-07T09:04:56;6.28;;;3.13;;
17494;SDS011;8864;51.970;4.614;2023-05-07T09:07:24;7.70;;;2.85;;
17494;SDS011;8864;51.970;4.614;2023-05-07T09:09:51;7.55;;;3.05;;
17494;SDS011;8864;51.970;4.614;2023-05-07T09:12:18;7.72;;;2.65;;
17494;SDS011;8864;51.970;4.614;2023-05-07T09:14:45;6.10;;;3.03;;
17494;SDS011;8864;51.970;4.614;2023-05-07T09:17:13;8.80;;;2.95;;
17494;SDS011;8864;51.970;4.614;2023-05-07T09:19:41;7.22;;;3.28;;
17494;SDS011;8864;51.970;4.614;2023-05-07T09:22:09;6.70;;;3.13;;
17494;SDS011;8864;51.970;4.614;2023-05-07T09:24:37;5.93;;;3.15;;
17494;SDS011;8864;51.970;4.614;2023-05-07T09:27:05;9.65;;;3.40;;
17494;SDS011;8864;51.970;4.614;2023-05-07T09:29:33;5.55;;;2.92;;
17494;SDS011;8864;51.970;4.614;2023-05-07T09:32:00;5.65;;;2.83;;
17494;SDS011;8864;51.970;4.614;2023-05-07T09:34:28;6.88;;;2.83;;
17494;SDS011;8864;51.970;4.614;2023-05-07T09:36:55;6.95;;;2.92;;
17494;SDS011;8864;51.970;4.614;2023-05-07T09:39:22;7.25;;;2.90;;
17494;SDS011;8864;51.970;4.614;2023-05-07T09:41:51;7.35;;;2.78;;
17494;SDS011;8864;51.970;4.614;2023-05-07T09:44:20;4.22;;;2.50;;
17494;SDS011;8864;51.970;4.614;2023-05-07T09:46:49;6.72;;;2.78;;
17494;SDS011;8864;51.970;4.614;2023-05-07T09:49:21;4.03;;;2.30;;
17494;SDS011;8864;51.970;4.614;2023-05-07T09:51:50;4.30;;;2.60;;
17494;SDS011;8864;51.970;4.614;2023-05-07T09:54:18;8.38;;;2.75;;
17494;SDS011;8864;51.970;4.614;2023-05-07T09:56:45;7.43;;;2.80;;
17494;SDS011;8864;51.970;4.614;2023-05-07T09:59:15;11.93;;;2.90;;
17494;SDS011;8864;51.970;4.614;2023-05-07T10:01:43;5.72;;;2.53;;
17494;SDS011;8864;51.970;4.614;2023-05-07T10:04:10;5.78;;;2.90;;
17494;SDS011;8864;51.970;4.614;2023-05-07T10:06:38;6.50;;;2.30;;
17494;SDS011;8864;51.970;4.614;2023-05-07T10:09:06;6.88;;;3.00;;
17494;SDS011;8864;51.970;4.614;2023-05-07T10:11:33;18.25;;;3.90;;
17494;SDS011;8864;51.970;4.614;2023-05-07T10:14:01;7.43;;;3.05;;
17494;SDS011;8864;51.970;4.614;2023-05-07T10:16:32;10.55;;;2.78;;
17494;SDS011;8864;51.970;4.614;2023-05-07T10:19:02;14.07;;;2.70;;
17494;SDS011;8864;51.970;4.614;2023-05-07T10:21:30;13.32;;;2.72;;
17494;SDS011;8864;51.970;4.614;2023-05-07T10:23:58;7.10;;;2.28;;
17494;SDS011;8864;51.970;4.614;2023-05-07T10:26:27;10.95;;;1.92;;
17494;SDS011;8864;51.970;4.614;2023-05-07T10:28:56;3.45;;;2.08;;
17494;SDS011;8864;51.970;4.614;2023-05-07T10:31:35;5.07;;;1.70;;
17494;SDS011;8864;51.970;4.614;2023-05-07T10:34:22;7.15;;;1.77;;
17494;SDS011;8864;51.970;4.614;2023-05-07T10:36:53;6.05;;;1.58;;
17494;SDS011;8864;51.970;4.614;2023-05-07T10:39:22;5.57;;;1.67;;
17494;SDS011;8864;51.970;4.614;2023-05-07T10:41:50;5.82;;;1.58;;
17494;SDS011;8864;51.970;4.614;2023-05-07T10:44:26;6.70;;;1.70;;
17494;SDS011;8864;51.970;4.614;2023-05-07T10:47:05;5.72;;;1.63;;
17494;SDS011;8864;51.970;4.614;2023-05-07T10:49:34;4.70;;;1.70;;
17494;SDS011;8864;51.970;4.614;2023-05-07T10:52:11;5.53;;;1.80;;
17494;SDS011;8864;51.970;4.614;2023-05-07T10:54:42;5.32;;;1.52;;
17494;SDS011;8864;51.970;4.614;2023-05-07T11:00:02;4.28;;;1.75;;
17494;SDS011;8864;51.970;4.614;2023-05-07T11:05:35;8.18;;;1.42;;
17494;SDS011;8864;51.970;4.614;2023-05-07T11:08:02;8.10;;;1.20;;
17494;SDS011;8864;51.970;4.614;2023-05-07T11:10:49;4.03;;;1.15;;
17494;SDS011;8864;51.970;4.614;2023-05-07T11:13:17;1.80;;;1.20;;
17494;SDS011;8864;51.970;4.614;2023-05-07T11:15:45;4.13;;;1.35;;
17494;SDS011;8864;51.970;4.614;2023-05-07T11:18:16;7.35;;;1.20;;
17494;SDS011;8864;51.970;4.614;2023-05-07T11:20:47;3.00;;;1.40;;
17494;SDS011;8864;51.970;4.614;2023-05-07T11:26:24;5.95;;;1.35;;
17494;SDS011;8864;51.970;4.614;2023-05-07T11:28:52;4.30;;;1.50;;
17494;SDS011;8864;51.970;4.614;2023-05-07T11:31:26;3.35;;;1.13;;
17494;SDS011;8864;51.970;4.614;2023-05-07T11:33:56;1.70;;;1.10;;
17494;SDS011;8864;51.970;4.614;2023-05-07T11:36:23;3.67;;;1.42;;
17494;SDS011;8864;51.970;4.614;2023-05-07T11:38:52;2.67;;;1.30;;
17494;SDS011;8864;51.970;4.614;2023-05-07T11:41:18;4.25;;;1.33;;
17494;SDS011;8864;51.970;4.614;2023-05-07T11:43:54;6.50;;;1.50;;
17494;SDS011;8864;51.970;4.614;2023-05-07T11:46:22;3.13;;;1.13;;
17494;SDS011;8864;51.970;4.614;2023-05-07T11:48:49;3.42;;;1.10;;
17494;SDS011;8864;51.970;4.614;2023-05-07T11:51:23;2.22;;;1.10;;
17494;SDS011;8864;51.970;4.614;2023-05-07T11:53:52;3.45;;;1.20;;
17494;SDS011;8864;51.970;4.614;2023-05-07T11:56:19;2.00;;;1.00;;
17494;SDS011;8864;51.970;4.614;2023-05-07T11:58:47;2.55;;;1.00;;
17494;SDS011;8864;51.970;4.614;2023-05-07T12:01:15;2.83;;;1.05;;
17494;SDS011;8864;51.970;4.614;2023-05-07T12:03:44;2.03;;;1.02;;
17494;SDS011;8864;51.970;4.614;2023-05-07T12:06:12;2.85;;;1.17;;
17494;SDS011;8864;51.970;4.614;2023-05-07T12:08:42;2.92;;;1.20;;
17494;SDS011;8864;51.970;4.614;2023-05-07T12:11:14;1.98;;;1.02;;
17494;SDS011;8864;51.970;4.614;2023-05-07T12:13:43;2.10;;;0.88;;
17494;SDS011;8864;51.970;4.614;2023-05-07T12:16:12;2.20;;;1.17;;
17494;SDS011;8864;51.970;4.614;2023-05-07T12:18:40;2.65;;;1.30;;
17494;SDS011;8864;51.970;4.614;2023-05-07T12:21:07;2.83;;;1.10;;
17494;SDS011;8864;51.970;4.614;2023-05-07T12:23:35;2.10;;;1.25;;
17494;SDS011;8864;51.970;4.614;2023-05-07T12:26:04;3.97;;;0.90;;
17494;SDS011;8864;51.970;4.614;2023-05-07T12:28:31;3.17;;;1.10;;
17494;SDS011;8864;51.970;4.614;2023-05-07T12:31:03;5.93;;;1.33;;
17494;SDS011;8864;51.970;4.614;2023-05-07T12:33:31;2.65;;;1.13;;
17494;SDS011;8864;51.970;4.614;2023-05-07T12:35:58;2.92;;;1.20;;
17494;SDS011;8864;51.970;4.614;2023-05-07T12:38:33;5.28;;;1.48;;
17494;SDS011;8864;51.970;4.614;2023-05-07T12:41:01;2.80;;;1.20;;
17494;SDS011;8864;51.970;4.614;2023-05-07T12:43:30;3.05;;;1.10;;
17494;SDS011;8864;51.970;4.614;2023-05-07T12:45:58;1.80;;;1.00;;
17494;SDS011;8864;51.970;4.614;2023-05-07T12:48:27;4.25;;;1.33;;
17494;SDS011;8864;51.970;4.614;2023-05-07T12:50:55;2.30;;;0.95;;
17494;SDS011;8864;51.970;4.614;2023-05-07T12:53:23;1.92;;;1.10;;
17494;SDS011;8864;51.970;4.614;2023-05-07T12:55:51;1.98;;;0.93;;
17494;SDS011;8864;51.970;4.614;2023-05-07T12:58:24;2.67;;;1.13;;
17494;SDS011;8864;51.970;4.614;2023-05-07T13:00:51;2.28;;;1.20;;
17494;SDS011;8864;51.970;4.614;2023-05-07T13:03:23;1.65;;;1.10;;
17494;SDS011;8864;51.970;4.614;2023-05-07T13:05:51;2.00;;;0.90;;
17494;SDS011;8864;51.970;4.614;2023-05-07T13:08:23;1.60;;;1.00;;
17494;SDS011;8864;51.970;4.614;2023-05-07T13:10:54;3.30;;;1.00;;
17494;SDS011;8864;51.970;4.614;2023-05-07T13:13:22;1.75;;;0.93;;
17494;SDS011;8864;51.970;4.614;2023-05-07T13:15:49;1.25;;;0.95;;
17494;SDS011;8864;51.970;4.614;2023-05-07T13:18:16;1.80;;;1.05;;
17494;SDS011;8864;51.970;4.614;2023-05-07T13:20:43;1.27;;;1.00;;
17494;SDS011;8864;51.970;4.614;2023-05-07T13:23:10;1.30;;;0.95;;
17494;SDS011;8864;51.970;4.614;2023-05-07T13:25:37;1.40;;;0.80;;
17494;SDS011;8864;51.970;4.614;2023-05-07T13:28:04;2.42;;;1.27;;
17494;SDS011;8864;51.970;4.614;2023-05-07T13:30:33;1.58;;;1.00;;
17494;SDS011;8864;51.970;4.614;2023-05-07T13:33:00;2.00;;;0.85;;
17494;SDS011;8864;51.970;4.614;2023-05-07T13:35:27;2.45;;;1.10;;
17494;SDS011;8864;51.970;4.614;2023-05-07T13:37:54;2.15;;;0.80;;
17494;SDS011;8864;51.970;4.614;2023-05-07T13:40:21;2.55;;;0.95;;
17494;SDS011;8864;51.970;4.614;2023-05-07T13:42:48;6.68;;;1.05;;
17494;SDS011;8864;51.970;4.614;2023-05-07T13:45:16;2.13;;;1.10;;
17494;SDS011;8864;51.970;4.614;2023-05-07T13:47:44;1.90;;;1.05;;
17494;SDS011;8864;51.970;4.614;2023-05-07T13:50:12;12.80;;;1.67;;
17494;SDS011;8864;51.970;4.614;2023-05-07T13:52:40;10.35;;;1.63;;
17494;SDS011;8864;51.970;4.614;2023-05-07T13:55:10;7.35;;;1.88;;
17494;SDS011;8864;51.970;4.614;2023-05-07T13:57:38;6.78;;;2.13;;
17494;SDS011;8864;51.970;4.614;2023-05-07T14:00:05;9.65;;;2.42;;
17494;SDS011;8864;51.970;4.614;2023-05-07T14:02:33;8.68;;;2.40;;
17494;SDS011;8864;51.970;4.614;2023-05-07T14:05:01;9.32;;;2.80;;
17494;SDS011;8864;51.970;4.614;2023-05-07T14:07:28;11.40;;;2.42;;
17494;SDS011;8864;51.970;4.614;2023-05-07T14:09:56;9.48;;;2.55;;
17494;SDS011;8864;51.970;4.614;2023-05-07T14:12:23;12.77;;;2.83;;
17494;SDS011;8864;51.970;4.614;2023-05-07T14:14:50;12.55;;;2.40;;
17494;SDS011;8864;51.970;4.614;2023-05-07T14:17:17;7.65;;;2.60;;
17494;SDS011;8864;51.970;4.614;2023-05-07T14:19:45;6.85;;;2.50;;
17494;SDS011;8864;51.970;4.614;2023-05-07T14:22:14;6.35;;;2.70;;
17494;SDS011;8864;51.970;4.614;2023-05-07T14:24:41;7.03;;;2.78;;
17494;SDS011;8864;51.970;4.614;2023-05-07T14:27:08;10.00;;;3.08;;
17494;SDS011;8864;51.970;4.614;2023-05-07T14:29:35;9.18;;;2.95;;
17494;SDS011;8864;51.970;4.614;2023-05-07T14:32:01;6.85;;;2.45;;
17494;SDS011;8864;51.970;4.614;2023-05-07T14:34:29;8.88;;;2.78;;
17494;SDS011;8864;51.970;4.614;2023-05-07T14:36:56;6.53;;;2.75;;
17494;SDS011;8864;51.970;4.614;2023-05-07T14:39:25;6.85;;;2.97;;
17494;SDS011;8864;51.970;4.614;2023-05-07T14:41:52;7.13;;;2.80;;
17494;SDS011;8864;51.970;4.614;2023-05-07T14:44:21;11.55;;;2.92;;
17494;SDS011;8864;51.970;4.614;2023-05-07T14:46:47;8.77;;;2.80;;
17494;SDS011;8864;51.970;4.614;2023-05-07T14:49:14;8.48;;;2.97;;
17494;SDS011;8864;51.970;4.614;2023-05-07T14:51:42;8.13;;;2.90;;
17494;SDS011;8864;51.970;4.614;2023-05-07T14:54:10;8.48;;;2.75;;
17494;SDS011;8864;51.970;4.614;2023-05-07T14:56:38;9.52;;;3.30;;
17494;SDS011;8864;51.970;4.614;2023-05-07T14:59:06;6.95;;;3.00;;
17494;SDS011;8864;51.970;4.614;2023-05-07T15:01:33;7.30;;;2.60;;
17494;SDS011;8864;51.970;4.614;2023-05-07T15:04:03;8.40;;;3.47;;
17494;SDS011;8864;51.970;4.614;2023-05-07T15:06:30;7.55;;;3.50;;
17494;SDS011;8864;51.970;4.614;2023-05-07T15:08:58;7.97;;;2.83;;
17494;SDS011;8864;51.970;4.614;2023-05-07T15:11:25;8.77;;;3.08;;
17494;SDS011;8864;51.970;4.614;2023-05-07T15:13:53;9.52;;;2.92;;